Silver Peak Trail, Santa Catalina Island Weather observations

Data are for 10 minute period ending at time listed.
 Day   Time   Solar   Ave.   Ave.  Ave.  Vector    Max.   Stn.    Total
  of    of     Rad.   Air    Rel.  Wind   Wind     Wind   Baro.  Precip.
Year   Day            Temp.  Hum.  Speed  Dir.     Gust   Pres.         
2015   (PST)   W/m2    F      %     mph   deg.      mph    mb.     in.  
------------------------------------------------------------------------
 239    5:20    1.0    77   39.9     2    182.8     3.0    999.0   0.00  
 239    5:30    3.0    77   41.2     3    218.4     4.2    999.0   0.00  
 239    5:40   16.0    78   41.6     3    241.8     4.8    999.0   0.00  
 239    5:50   39.0    78   37.3     3    249.4     4.2    999.0   0.00  
 239    6:00   66.0    80   32.3     0    236.3     2.4    999.0   0.00  
 239    6:10   95.0    80   35.4     4     25.5     6.6    999.0   0.00  
 239    6:20  124.0    79   40.5     5     14.6     6.0    999.0   0.00  
 239    6:30  154.0    79   41.5     6     27.4     7.2    999.0   0.00  
 239    6:40  187.0    79   41.5     5     34.6     6.6    999.0   0.00  
 239    6:50  221.0    80   39.9     4     51.0     5.4    999.0   0.00  
 239    7:00  254.0    82   35.5     3     63.6     4.2    999.0   0.00  
 239    7:10  289.0    83   36.8     4     66.3     5.4    999.0   0.00  
 239    7:20  324.0    84   36.5     4     81.5     5.4    999.0   0.00  
 239    7:30  357.0    84   36.0     4     70.8     6.0    999.0   0.00  
 239    7:40  391.0    85   35.3     3     85.2     4.8    999.0   0.00  
 239    7:50  426.0    88   34.6     2    113.5     4.8    999.0   0.00  
 239    8:00  461.0    87   35.5     3    139.3     4.8    999.0   0.00  
 239    8:10  494.0    87   35.8     3    125.4     4.8    999.0   0.00  
 239    8:20  527.0    87   33.3     3    116.9     5.4    999.0   0.00  
 239    8:30  557.0    89   32.6     2    141.8     4.8    999.0   0.00  
 239    8:40  588.0    89   35.5     2    141.5     4.2    999.0   0.00  
 239    8:50  617.0    88   33.6     2    145.4     4.8    999.0   0.00  
 239    9:00  645.0    90   32.6     2    134.3     5.4    999.0   0.00  
 239    9:10  673.0    90   35.7     2    165.9     3.6    999.0   0.00  
 239    9:20  699.0    90   36.4     2    192.4     4.2    999.0   0.00  
 239    9:30  725.0    89   32.6     2    200.7     4.2    999.0   0.00  
 239    9:40  749.0    90   31.3     2    201.4     4.8    999.0   0.00  
 239    9:50  771.0    90   31.1     2    208.0     4.8    999.0   0.00  
 239   10:00  794.0    90   28.8     3    198.5     4.2    999.0   0.00  
 239   10:10  814.0    91   30.1     2    181.0     4.2    999.0   0.00  
 239   10:20  832.0    91   30.2     3    206.8     4.8    999.0   0.00  
 239   10:30  849.0    91   31.4     3    205.3     6.0    999.0   0.00  
 239   10:40  864.0    92   33.0     3    193.9     5.4    999.0   0.00  
 239   10:50  878.0    90   32.9     5    211.2     7.8    999.0   0.00  
 239   11:00  889.0    88   32.6     6    211.6     7.8    999.0   0.00  
 239   11:10  898.0    87   32.8     6    215.1     8.4    999.0   0.00  
 239   11:20  907.0    88   32.7     5    211.9     7.8    999.0   0.00  
 239   11:30  914.0    89   30.1     5    210.9     7.2    999.0   0.00  
 239   11:40  918.0    89   32.0     5    209.0     7.2    999.0   0.00  
 239   11:50  921.0    88   33.8     5    208.2     7.2    999.0   0.00  
 239   12:00  922.0    87   34.4     6    205.2     7.2    999.0   0.00  
 239   12:10  922.0    88   33.5     5    204.1     7.2    999.0   0.00  
 239   12:20  920.0    88   29.6     6    210.0     8.4    999.0   0.00  
 239   12:30  917.0    89   26.0     4    201.7     6.6    999.0   0.00  
 239   12:40  911.0    89   27.4     5    207.2     8.4    999.0   0.00  
 239   12:50  903.0    89   26.8     6    214.0     8.4    999.0   0.00  
 239   13:00  893.0    89   26.6     6    209.9     9.0    999.0   0.00  
 239   13:10  882.0    90   26.5     7    214.3    10.2    999.0   0.00  
 239   13:20  868.0    89   28.8     7    213.0     9.0    999.0   0.00  
 239   13:30  854.0    90   27.2     6    217.5     8.4    999.0   0.00  
 239   13:40  839.0    93   26.7     5    216.3     7.8    999.0   0.00  
 239   13:50  821.0    93   25.7     6    220.3     9.0    999.0   0.00  
 239   14:00  801.0    93   26.2     9    219.7    12.5    999.0   0.00  
 239   14:10  780.0    90   26.1    10    216.9    12.5    999.0   0.00  
 239   14:20  758.0    91   25.7    10    221.1    12.5    999.0   0.00  
 239   14:30  733.0    89   27.0    10    215.3    12.5    999.0   0.00  
 239   14:40  709.0    90   26.5    10    218.7    13.1    999.0   0.00  
 239   14:50  684.0    89   27.9     9    217.6    12.5    999.0   0.00  
 239   15:00  657.0    90   28.2     9    219.1    11.9    999.0   0.00  
 239   15:10  629.0    90   29.8     7    217.9     9.6    999.0   0.00  
 239   15:20  600.0    92   29.6     7    216.7     9.6    999.0   0.00  
 239   15:30  571.0    90   31.1     8    220.3    10.8    999.0   0.00  
 239   15:40  540.0    89   30.8     9    217.8    11.9    999.0   0.00  
 239   15:50  510.0    90   29.6     9    224.2    11.3    999.0   0.00  
 239   16:00  478.0    90   30.0     8    221.9    10.8    999.0   0.00  
 239   16:10  445.0    91   29.5     6    214.0    10.2    999.0   0.00  
 239   16:20  412.0    90   30.9     8    221.6    10.2    999.0   0.00  
 239   16:30  378.0    90   31.1     6    219.4    10.8    999.0   0.00  
 239   16:40  344.0    90   30.6     7    218.1    10.2    999.0   0.00  
 239   16:50  310.0    89   32.9     7    218.5     9.6    999.0   0.00  
 239   17:00  271.0    88   33.3     8    224.7    11.3    999.0   0.00  
 239   17:10  241.0    88   32.0     9    221.7    12.5    999.0   0.00  
 239   17:20  210.0    86   31.9    10    226.5    12.5    999.0   0.00  
 239   17:30  177.0    85   32.7    10    237.0    13.1    999.0   0.00  
 239   17:40  144.0    86   30.1    10    237.1    15.5    999.0   0.00  
 239   17:50  113.0    85   30.1     8    252.3    14.3    999.0   0.00  
 239   18:00   76.0    84   31.9     7    246.9    13.7    999.0   0.00  
 239   18:10   52.0    84   32.2     5    212.4    10.8    999.0   0.00  
 239   18:20   35.0    84   31.0     4    239.5     7.2    999.0   0.00  
 239   18:30   14.0    83   31.2     4    272.6     6.6    999.0   0.00  
 239   18:40    3.0    83   30.7     4    323.3    10.2    999.0   0.00  
 239   18:50    1.0    82   32.8     6    319.6     8.4    999.0   0.00  
 239   19:00    0.0    81   34.5     4    255.1     6.0    999.0   0.00  
 239   19:10    0.0    81   32.5     6    312.9     9.0    999.0   0.00  
 239   19:20    0.0    82   30.4     6    297.2     9.6    999.0   0.00  
 239   19:30    0.0    82   30.9     6    293.3     9.6    999.0   0.00  
 239   19:40    0.0    82   31.0     7    310.9     9.6    999.0   0.00  
 239   19:50    0.0    82   30.9     6    306.8     8.4    999.0   0.00  
 239   20:00    0.0    82   31.7     6    290.6     9.6    999.0   0.00  
 239   20:10    0.0    81   32.7     7    316.9     9.0    999.0   0.00  
 239   20:20    0.0    81   33.8     8    311.8     9.0    999.0   0.00  
 239   20:30    0.0    82   37.9     7    302.2     9.6    999.0   0.00  
 239   20:40    0.0    82   40.0     8    302.7    11.3    999.0   0.00  
 239   20:50    0.0    82   42.3     7    310.9     9.0    999.0   0.00  
 239   21:00    0.0    82   43.0     7    313.6    10.2    999.0   0.00  
 239   21:10    0.0    81   45.4     7    309.7    10.2    999.0   0.00  
 239   21:20    0.0    81   42.6     6    303.8     7.8    999.0   0.00  
 239   21:30    0.0    81   40.1     6    257.3     8.4    999.0   0.00  
 239   21:40    0.0    81   38.2     6    276.6     7.8    999.0   0.00  
 239   21:50    0.0    82   35.5     5    310.2     7.2    999.0   0.00  
 239   22:00    0.0    81   38.7     6    308.5     9.6    999.0   0.00  
 239   22:10    0.0    80   41.2     2    304.2     4.8    999.0   0.00  
 239   22:20    0.0    78   42.0     3    172.2     4.8    999.0   0.00  
 239   22:30    0.0    78   41.8     4    171.5     6.0    999.0   0.00  
 239   22:40    0.0    79   41.5     4    211.7     5.4    999.0   0.00  
 239   22:50    0.0    81   38.6     3     39.3     6.6    999.0   0.00  
 239   23:00    0.0    79   36.7     4    121.2     6.0    999.0   0.00  
 239   23:10    0.0    79   35.4     4    133.0     4.8    999.0   0.00  
 239   23:20    0.0    79   35.6     4    115.9     5.4    999.0   0.00  
 239   23:30    0.0    79   35.4     4    134.9     6.0    999.0   0.00  
 239   23:40    0.0    80   37.2     3    154.5     4.8    999.0   0.00  
 239   23:50    0.0    80   38.3     4    141.4     4.8    999.0   0.00  
 240    0:00    0.0    80   38.7     2     94.6     3.6    999.0   0.00  
 240    0:10    0.0    82   37.6     1    311.9     2.4    999.0   0.00  
 240    0:20    0.0    81   38.6     3    190.0     5.4    999.0   0.00  
 240    0:30    0.0    81   39.2     4    156.7     4.8    999.0   0.00  
 240    0:40    0.0    81   38.9     2    174.9     3.6    999.0   0.00  
 240    0:50    0.0    81   38.8     3    167.5     4.8    999.0   0.00  
 240    1:00    0.0    80   39.3     5    191.3     6.6    999.0   0.00  
 240    1:10    0.0    80   39.8     4    187.2     6.0    999.0   0.00  
 240    1:20    0.0    80   39.8     5    177.1     6.0    999.0   0.00  
 240    1:30    0.0    79   39.1     5    188.9     6.6    999.0   0.00  
 240    1:40    0.0    79   38.2     5    187.3     7.8    999.0   0.00  
 240    1:50    0.0    79   38.4     6    194.0     8.4    999.0   0.00  
 240    2:00    0.0    79   38.9     5    165.9     6.6    999.0   0.00  
 240    2:10    0.0    79   39.1     4    161.8     5.4    999.0   0.00  
 240    2:20    0.0    80   39.8     5    154.5     5.4    999.0   0.00  
 240    2:30    0.0    80   39.6     4    133.2     5.4    999.0   0.00  
 240    2:40    0.0    79   39.4     3     90.4     4.8    999.0   0.00  
 240    2:50    0.0    78   39.4     6     70.2     7.8    999.0   0.00  
 240    3:00    0.0    79   39.2     4    119.9     5.4    999.0   0.00  
 240    3:10    0.0    80   38.1     4    181.4     6.6    999.0   0.00  
 240    3:20    0.0    80   38.1     5    199.0     6.0    999.0   0.00  
 240    3:30    0.0    80   38.2     4    178.9     6.0    999.0   0.00  
 240    3:40    0.0    80   38.2     5    173.2     7.2    999.0   0.00  
 240    3:50    0.0    80   37.6     5    151.0     6.0    999.0   0.00  
 240    4:00    0.0    81   37.2     4    173.4     6.6    999.0   0.00  
 240    4:10    0.0    80   37.1     6    178.9     7.2    999.0   0.00  
 240    4:20    0.0    80   37.2     6    181.0     7.2    999.0   0.00  
 240    4:30    0.0    80   37.5     6    169.5     9.0    999.0   0.00  
 240    4:40    0.0    80   37.5     6    168.1     8.4    999.0   0.00  
 240    4:50    0.0    80   37.5     6    149.7     8.4    999.0   0.00  
 240    5:00    0.0    80   37.3     7    145.8     9.0    999.0   0.00  
 240    5:10    0.0    80   37.0     7    140.6     8.4    999.0   0.00  

Return to Silver Peak Trail graphs page.


Western Regional Climate Center,wrcc@dri.edu